Impacts METAR Board INFO
IDs:

KORD - Chicago/O'Hare Intl, IL, US

Updated at: 0918 UTC 20 Jan 2018
Potential Impact None Slight Moderate High
Time19/21Z 19/22Z 19/23Z 20/00Z 20/01Z 20/02Z 20/03Z 20/04Z 20/05Z 20/06Z 20/07Z 20/08Z 20/09Z
VIS10 10 10 10 10 10 10 10 10 10 10 10 10
CIG250 250 250 250 250 250 250 250 240 240 -- -- 250
CoverBKNBKNBKNBKNBKNOVCOVCOVCOVCBKNFEWSCTBKN
FltCatVFRVFRVFRVFRVFRVFRVFRVFRVFRVFRVFRVFRVFR
WX--------------------------
WDir210210200210210210220220220220230230230
WSpd18 19 15 16 17 17 17 17 15 13 12 10 10
WGst26 25 21 25 27 27 28 24 22 -- -- -- --
Raw hourly METARs
KORD 192051Z 21018G26KT 10SM BKN250 04/M04 A2976 RMK AO2 PK WND 21026/2044 SLP082 T00391044 56024
KORD 192151Z 21019G25KT 10SM BKN250 04/M04 A2976 RMK AO2 SLP083 T00391039
KORD 192251Z 20015G21KT 10SM BKN250 03/M03 A2974 RMK AO2 PK WND 21028/2159 SLP077 T00331028
KORD 192351Z 21016G25KT 10SM BKN250 04/M02 A2973 RMK AO2 SLP072 4/001 T00391022 10044 20022 58010
KORD 200051Z 21017G27KT 10SM FEW150 BKN250 04/M02 A2972 RMK AO2 PK WND 21028/0018 SLP070 T00441022
KORD 200151Z 21017G27KT 10SM OVC250 04/M02 A2971 RMK AO2 PK WND 22029/0121 SLP068 T00441022
KORD 200251Z COR 22017G28KT 10SM OVC250 04/M02 A2972 RMK AO2 PK WND 23030/0157 SLP070 T00441022 55002
KORD 200351Z 22017G24KT 10SM OVC250 04/M02 A2974 RMK AO2 SLP077 T00441022
KORD 200451Z 22015G22KT 10SM OVC240 04/M02 A2976 RMK AO2 SLP084 T00391022
KORD 200551Z 22013KT 10SM BKN240 04/M02 A2977 RMK AO2 SLP087 T00391022 10044 20039 400441022 51018
KORD 200651Z 23012KT 10SM FEW250 03/M03 A2978 RMK AO2 SLP089 T00331028
KORD 200751Z 23010KT 10SM SCT250 03/M03 A2980 RMK AO2 SLP095 T00281028
KORD 200851Z 23010KT 10SM BKN250 03/M03 A2981 RMK AO2 SLP099 T00281028 53012